Time;durP1;ratioP1;P1;durP2;ratioP2;P2;SDS_P1;SDS_P2;PMS_P1;PMS_P2;Temp;Humidity;BMP_temperature;BMP_pressure;BME280_temperature;BME280_humidity;BME280_pressure;Samples;Min_cycle;Max_cycle;Signal;HPM_P1;HPM_P2
2021/01/02 00:00:51;;;;;;;26.75;15.57;;;-0.50;99.10;;;;;;5021008;28;20022;-83
2021/01/02 00:03:30;;;;;;;23.75;14.85;;;-0.50;99.10;;;;;;5020799;28;20362;-82
2021/01/02 00:06:27;;;;;;;26.70;15.93;;;-0.50;98.90;;;;;;5020972;28;20025;-84
2021/01/02 00:09:02;;;;;;;27.65;16.10;;;-0.50;99.10;;;;;;5020683;28;20064;-85
2021/01/02 00:11:52;;;;;;;25.27;15.73;;;-0.60;99.10;;;;;;5016663;28;20021;-83
2021/01/02 00:14:41;;;;;;;25.95;14.48;;;-0.60;99.00;;;;;;5038173;28;20041;-82
2021/01/02 00:17:26;;;;;;;20.55;14.13;;;-0.60;98.90;;;;;;5020790;28;20022;-84
2021/01/02 00:20:51;;;;;;;25.25;14.63;;;-0.50;98.90;;;;;;5020941;28;20496;-84
2021/01/02 00:23:45;;;;;;;23.40;14.57;;;-0.50;98.70;;;;;;4922797;29;20106;-83
2021/01/02 00:26:29;;;;;;;22.38;14.20;;;-0.60;98.90;;;;;;4922957;29;20048;-82
2021/01/02 00:28:56;;;;;;;22.98;14.25;;;-0.60;98.90;;;;;;5013960;28;20106;-86
2021/01/02 00:31:46;;;;;;;26.75;14.05;;;-0.50;99.00;;;;;;5020049;28;20076;-84
2021/01/02 00:34:18;;;;;;;22.75;13.48;;;-0.50;99.00;;;;;;5020716;28;20472;-82
2021/01/02 00:37:14;;;;;;;22.15;14.68;;;-0.50;99.00;;;;;;5020019;28;20518;-84
2021/01/02 00:39:49;;;;;;;;;;;-0.40;99.10;;;;;;5020522;28;20193;-84
2021/01/02 00:42:15;;;;;;;24.90;14.32;;;-0.40;99.00;;;;;;5020256;28;19940;-82
2021/01/02 00:44:46;;;;;;;24.10;15.43;;;-0.40;99.00;;;;;;5020138;28;20029;-84
2021/01/02 00:47:14;;;;;;;25.25;15.38;;;-0.40;99.10;;;;;;5020190;28;20033;-82
2021/01/02 00:49:42;;;;;;;24.65;16.05;;;-0.40;99.10;;;;;;5020263;28;20032;-84
2021/01/02 00:52:28;;;;;;;21.10;14.90;;;-0.40;99.10;;;;;;5019904;28;20450;-83
2021/01/02 00:55:20;;;;;;;21.05;14.32;;;-0.40;99.00;;;;;;5019821;28;20092;-84
2021/01/02 00:58:11;;;;;;;23.30;14.68;;;-0.40;98.90;;;;;;5020274;28;20040;-83
2021/01/02 01:00:40;;;;;;;26.00;15.10;;;-0.50;98.70;;;;;;5019969;28;20032;-83
2021/01/02 01:03:17;;;;;;;22.85;13.63;;;-0.50;98.70;;;;;;5019533;28;20549;-84
2021/01/02 01:05:46;;;;;;;23.08;14.43;;;-0.60;98.70;;;;;;5019714;28;20025;-84
2021/01/02 01:08:16;;;;;;;24.73;14.48;;;-0.60;98.70;;;;;;5019896;28;20057;-84
2021/01/02 01:10:42;;;;;;;26.30;14.93;;;-0.70;98.70;;;;;;5037316;28;20029;-85
2021/01/02 01:13:21;;;;;;;26.40;14.63;;;-0.60;98.90;;;;;;5020276;28;20123;-85
2021/01/02 01:15:47;;;;;;;21.20;14.55;;;-0.70;98.90;;;;;;5019702;28;20052;-82
2021/01/02 01:18:38;;;;;;;21.15;13.30;;;-0.80;98.90;;;;;;5019190;28;20029;-83
2021/01/02 01:21:08;;;;;;;21.38;14.05;;;-0.80;99.10;;;;;;5019688;28;20035;-82
2021/01/02 01:23:49;;;;;;;24.20;13.98;;;-0.80;99.10;;;;;;5019666;28;20022;-84
2021/01/02 01:26:33;;;;;;;22.58;14.30;;;-0.80;99.20;;;;;;5019459;28;20029;-84
2021/01/02 01:29:01;;;;;;;28.02;14.82;;;-0.90;99.30;;;;;;5019875;28;20022;-84
2021/01/02 01:31:44;;;;;;;22.13;14.07;;;-0.90;99.30;;;;;;5019256;28;20049;-84
2021/01/02 01:34:12;;;;;;;21.40;13.57;;;-0.90;99.50;;;;;;5020225;28;20030;-84
2021/01/02 01:36:42;;;;;;;23.10;13.43;;;-0.90;99.40;;;;;;5019914;28;20045;-84
2021/01/02 01:39:07;;;;;;;21.77;14.10;;;-0.90;99.40;;;;;;5019612;28;20021;-84
2021/01/02 01:41:43;;;;;;;26.20;16.58;;;-0.90;99.40;;;;;;5019589;28;20044;-82
2021/01/02 01:44:09;;;;;;;23.83;15.68;;;-0.90;99.50;;;;;;5019311;28;20288;-84
2021/01/02 01:46:36;;;;;;;23.58;14.95;;;-0.90;99.70;;;;;;5018821;28;20030;-85
2021/01/02 01:49:10;;;;;;;26.58;15.40;;;-0.90;99.60;;;;;;5018790;28;20462;-85
2021/01/02 01:51:55;;;;;;;25.73;15.80;;;-0.90;99.50;;;;;;5018932;28;20396;-83
2021/01/02 01:54:26;;;;;;;25.33;16.63;;;-0.90;99.50;;;;;;5019412;28;20079;-84
2021/01/02 01:56:55;;;;;;;28.58;15.30;;;-1.00;99.50;;;;;;5019154;28;20595;-83
2021/01/02 01:59:22;;;;;;;23.15;14.93;;;-0.90;99.70;;;;;;5019112;28;20483;-84
2021/01/02 02:01:56;;;;;;;24.13;14.85;;;-0.90;99.60;;;;;;5019904;28;20482;-84
2021/01/02 02:04:48;;;;;;;19.20;11.77;;;-0.90;99.40;;;;;;5015620;28;20030;-84
2021/01/02 02:07:16;;;;;;;23.58;14.48;;;-0.90;99.50;;;;;;5036527;28;20036;-84
2021/01/02 02:09:43;;;;;;;23.83;14.73;;;-0.90;99.50;;;;;;5018990;28;20069;-84
2021/01/02 02:12:21;;;;;;;22.38;14.05;;;-0.90;99.50;;;;;;5018706;28;20025;-83
2021/01/02 02:14:47;;;;;;;25.40;14.20;;;-1.00;99.50;;;;;;5036412;28;20064;-82
2021/01/02 02:17:17;;;;;;;21.73;13.38;;;-0.90;99.50;;;;;;5018513;28;20032;-83
2021/01/02 02:19:59;;;;;;;21.17;13.27;;;-1.00;99.50;;;;;;5018200;28;20430;-84
2021/01/02 02:22:26;;;;;;;22.42;13.80;;;-1.00;99.50;;;;;;5035915;28;20087;-83
2021/01/02 02:24:56;;;;;;;19.77;12.68;;;-1.00;99.50;;;;;;5018816;28;20036;-83
2021/01/02 02:27:29;;;;;;;20.63;13.15;;;-1.10;99.40;;;;;;5019043;28;20029;-82
2021/01/02 02:30:16;;;;;;;24.40;13.52;;;-1.10;99.50;;;;;;5013982;28;20108;-85
2021/01/02 02:32:47;;;;;;;22.00;12.23;;;-1.10;99.50;;;;;;5013594;28;20037;-84
2021/01/02 02:35:19;;;;;;;22.80;13.52;;;-1.10;99.50;;;;;;5018608;28;20031;-84
2021/01/02 02:37:50;;;;;;;21.20;13.40;;;-1.20;99.60;;;;;;5035788;28;20025;-83
2021/01/02 02:40:19;;;;;;;22.95;13.43;;;-1.10;99.60;;;;;;5018620;28;20022;-83
2021/01/02 02:42:58;;;;;;;21.08;13.05;;;-1.20;99.40;;;;;;5018558;28;20086;-83
2021/01/02 02:45:24;;;;;;;20.90;12.68;;;-1.20;99.50;;;;;;5019009;28;20116;-83
2021/01/02 02:47:56;;;;;;;20.25;12.68;;;-1.20;99.40;;;;;;5018800;28;20026;-86
2021/01/02 02:50:25;;;;;;;21.13;12.88;;;-1.20;99.50;;;;;;5019175;28;20083;-84
2021/01/02 02:53:06;;;;;;;22.33;13.75;;;-1.20;99.70;;;;;;5019176;28;20033;-84
2021/01/02 02:55:36;;;;;;;23.35;13.52;;;-1.20;99.80;;;;;;5018765;28;20033;-83
2021/01/02 02:58:02;;;;;;;22.60;13.02;;;-1.20;99.80;;;;;;5018437;28;20025;-84
2021/01/02 03:00:28;;;;;;;23.10;14.63;;;-1.10;99.80;;;;;;5018521;28;20041;-83
2021/01/02 03:02:54;;;;;;;22.50;13.65;;;-1.10;99.80;;;;;;5017929;28;20037;-83
2021/01/02 03:05:20;;;;;;;25.08;14.20;;;-1.10;99.80;;;;;;5018391;28;20059;-82
2021/01/02 03:07:50;;;;;;;20.67;13.38;;;-1.10;99.80;;;;;;5017935;28;20025;-83
2021/01/02 03:10:19;;;;;;;21.30;13.15;;;-1.10;99.80;;;;;;5017887;28;20021;-84
2021/01/02 03:12:49;;;;;;;22.25;13.38;;;-1.10;99.80;;;;;;5017850;28;20473;-84
2021/01/02 03:15:17;;;;;;;19.05;12.85;;;-1.10;99.80;;;;;;5018103;28;20033;-84
2021/01/02 03:17:44;;;;;;;20.00;12.75;;;-1.00;99.80;;;;;;5020818;28;20377;-82
2021/01/02 03:20:11;;;;;;;22.85;14.30;;;-1.00;99.70;;;;;;5021955;28;20026;-86
2021/01/02 03:22:44;;;;;;;20.23;12.90;;;-1.00;99.70;;;;;;5021605;28;20040;-84
2021/01/02 03:25:12;;;;;;;22.90;13.48;;;-1.00;99.80;;;;;;5039200;28;20458;-84
2021/01/02 03:27:38;;;;;;;22.67;13.57;;;-1.00;99.70;;;;;;5021076;28;20123;-83
2021/01/02 03:30:07;;;;;;;22.52;12.88;;;-0.90;99.70;;;;;;5021633;28;20021;-83
2021/01/02 03:32:34;;;;;;;23.00;12.70;;;-1.00;99.60;;;;;;5021786;28;20473;-84
2021/01/02 03:35:00;;;;;;;22.73;14.07;;;-0.90;99.60;;;;;;5021893;28;20025;-82
2021/01/02 03:37:26;;;;;;;25.13;14.15;;;-0.90;99.40;;;;;;5021377;28;20029;-84
2021/01/02 03:39:52;;;;;;;20.88;13.23;;;-1.00;99.30;;;;;;5039145;28;20474;-84
2021/01/02 03:42:18;;;;;;;20.27;13.35;;;-1.00;99.30;;;;;;5038933;28;20029;-83
2021/01/02 03:44:43;;;;;;;23.67;13.75;;;-1.10;99.20;;;;;;5021123;28;20017;-83
2021/01/02 03:47:10;;;;;;;24.40;13.82;;;-1.10;99.30;;;;;;5021526;28;20025;-84
2021/01/02 03:49:37;;;;;;;22.13;13.10;;;-1.10;99.40;;;;;;5021761;28;20491;-84
2021/01/02 03:52:04;;;;;;;21.40;12.32;;;-1.10;99.30;;;;;;5021504;28;20080;-83
2021/01/02 03:54:30;;;;;;;24.67;14.23;;;-1.20;99.30;;;;;;5021326;28;20025;-85
2021/01/02 03:56:56;;;;;;;24.55;16.33;;;-1.20;99.40;;;;;;5021294;28;20033;-83
2021/01/02 03:59:22;;;;;;;27.58;16.17;;;-1.20;99.30;;;;;;5021457;28;20381;-83
2021/01/02 04:01:56;;;;;;;24.60;16.63;;;-1.20;99.50;;;;;;5021010;28;20477;-86
2021/01/02 04:04:22;;;;;;;24.85;15.98;;;-1.20;99.60;;;;;;5020652;28;20026;-82
2021/01/02 04:06:48;;;;;;;22.77;14.50;;;-1.30;99.60;;;;;;5021072;28;20036;-82
2021/01/02 04:09:14;;;;;;;27.58;17.60;;;-1.30;99.40;;;;;;5021245;28;20538;-85
2021/01/02 04:11:41;;;;;;;27.60;18.83;;;-0.90;99.80;;;;;;5020899;28;20029;-83
2021/01/02 04:14:08;;;;;;;26.67;18.30;;;-1.30;99.80;;;;;;5020794;28;20079;-83
2021/01/02 04:16:34;;;;;;;27.30;16.23;;;-1.20;99.80;;;;;;5020774;28;20496;-84
2021/01/02 04:19:00;;;;;;;26.50;16.52;;;-1.20;99.80;;;;;;5038333;28;20021;-82
2021/01/02 04:21:26;;;;;;;29.02;19.65;;;-1.00;99.80;;;;;;5020718;28;20033;-83
2021/01/02 04:23:52;;;;;;;33.53;18.55;;;-1.10;99.70;;;;;;5020694;28;20171;-84
2021/01/02 04:26:22;;;;;;;26.38;16.15;;;-1.10;99.80;;;;;;5020549;28;20049;-83
2021/01/02 04:28:48;;;;;;;28.00;15.52;;;-1.10;99.80;;;;;;5020423;28;20026;-82
2021/01/02 04:31:14;;;;;;;29.33;16.80;;;-0.90;99.90;;;;;;5020089;28;20053;-83
2021/01/02 04:33:40;;;;;;;27.00;15.75;;;-0.90;99.80;;;;;;5020482;28;20121;-84
2021/01/02 04:36:06;;;;;;;26.52;14.77;;;-0.90;99.70;;;;;;5020219;28;20508;-84
2021/01/02 04:38:31;;;;;;;22.80;14.45;;;-0.90;99.70;;;;;;5019971;28;20044;-84
2021/01/02 04:40:58;;;;;;;19.70;12.35;;;-0.90;99.50;;;;;;5019798;28;20029;-83
2021/01/02 04:43:25;;;;;;;20.58;13.55;;;-0.80;99.50;;;;;;5020225;28;20034;-83
2021/01/02 04:45:52;;;;;;;17.90;11.95;;;-0.80;99.20;;;;;;5020206;28;20433;-85
2021/01/02 04:48:18;;;;;;;20.63;11.15;;;-0.80;99.10;;;;;;5020309;28;20029;-85
2021/01/02 04:50:46;;;;;;;15.63;9.77;;;-0.90;98.80;;;;;;5019907;28;20072;-85
2021/01/02 04:53:13;;;;;;;16.02;9.25;;;-1.00;99.20;;;;;;5020061;28;20029;-84
2021/01/02 04:55:46;;;;;;;17.00;9.27;;;-1.00;98.80;;;;;;5019806;28;20029;-83
2021/01/02 04:58:19;;;;;;;14.57;8.10;;;-1.00;98.80;;;;;;5020058;28;20092;-84
2021/01/02 05:00:47;;;;;;;11.57;6.93;;;-1.00;98.70;;;;;;5020166;28;20026;-84
2021/01/02 05:03:13;;;;;;;11.98;7.32;;;-1.00;99.00;;;;;;5019366;28;20107;-84
2021/01/02 05:05:40;;;;;;;9.35;5.82;;;-0.90;99.20;;;;;;5019452;28;20030;-83
2021/01/02 05:08:06;;;;;;;10.95;6.45;;;-1.00;99.10;;;;;;5019592;28;20110;-83
2021/01/02 05:10:32;;;;;;;10.38;6.38;;;-1.00;99.20;;;;;;5019829;28;20369;-84
2021/01/02 05:13:14;;;;;;;18.05;10.07;;;-1.00;99.20;;;;;;5019575;28;20052;-83
2021/01/02 05:15:40;;;;;;;16.85;9.50;;;-0.90;99.30;;;;;;5019451;28;20025;-82
2021/01/02 05:18:06;;;;;;;24.05;16.33;;;-0.90;99.40;;;;;;5019338;28;20041;-83
2021/01/02 05:20:32;;;;;;;22.08;15.63;;;-0.80;99.20;;;;;;5019704;28;20033;-83
2021/01/02 05:23:08;;;;;;;25.65;16.13;;;-0.80;99.10;;;;;;5019104;28;20037;-83
2021/01/02 05:25:34;;;;;;;23.35;16.38;;;-0.80;99.30;;;;;;5019589;28;20443;-84
2021/01/02 05:28:00;;;;;;;28.30;15.15;;;-0.80;99.30;;;;;;5019523;28;20032;-83
2021/01/02 05:30:34;;;;;;;24.90;15.45;;;-0.70;99.30;;;;;;5019298;28;20045;-83
2021/01/02 05:33:00;;;;;;;31.13;16.25;;;-0.70;99.40;;;;;;5019893;28;20063;-83
2021/01/02 05:35:35;;;;;;;34.00;15.55;;;-0.70;99.30;;;;;;5019543;28;20026;-83
2021/01/02 05:38:20;;;;;;;25.70;15.53;;;-0.70;99.40;;;;;;5019428;28;20090;-84
2021/01/02 05:40:51;;;;;;;24.85;14.93;;;-0.60;99.30;;;;;;5018461;28;20426;-84
2021/01/02 05:43:19;;;;;;;24.23;16.30;;;-0.60;99.00;;;;;;5018720;28;20508;-79
2021/01/02 05:45:45;;;;;;;24.70;15.27;;;-0.60;99.10;;;;;;5036979;28;20522;-82
2021/01/02 05:48:25;;;;;;;47.28;30.02;;;-0.10;99.90;;;;;;5018362;28;20040;-84
2021/01/02 05:50:52;;;;;;;27.80;17.65;;;0.40;99.90;;;;;;5019290;28;20028;-83
2021/01/02 05:53:22;;;;;;;24.30;16.05;;;0.20;99.90;;;;;;5021669;28;20048;-77
2021/01/02 05:56:12;;;;;;;24.02;15.93;;;0.00;99.90;;;;;;5034738;28;20025;-82
2021/01/02 05:58:40;;;;;;;18.90;12.73;;;0.00;99.90;;;;;;5018585;28;20634;-82
2021/01/02 06:01:10;;;;;;;19.83;13.50;;;-0.10;99.70;;;;;;5018012;28;20598;-84
2021/01/02 06:03:37;;;;;;;21.17;13.73;;;-0.10;99.20;;;;;;5019235;28;20026;-83
2021/01/02 06:06:08;;;;;;;22.63;13.15;;;-0.20;99.30;;;;;;5018566;28;20028;-83
2021/01/02 06:08:54;;;;;;;18.88;11.43;;;-0.20;99.20;;;;;;5018429;28;20022;-84
2021/01/02 06:11:22;;;;;;;17.02;11.02;;;-0.20;99.20;;;;;;5018499;28;20362;-81
2021/01/02 06:13:50;;;;;;;21.50;11.95;;;-0.20;99.30;;;;;;5018700;28;20029;-82
2021/01/02 06:16:17;;;;;;;19.25;12.63;;;-0.20;99.50;;;;;;5018343;28;20021;-83
2021/01/02 06:18:44;;;;;;;19.48;13.70;;;-0.10;99.50;;;;;;5018842;28;20048;-84
2021/01/02 06:21:12;;;;;;;22.10;13.82;;;-0.30;99.40;;;;;;5018745;28;20447;-83
2021/01/02 06:23:39;;;;;;;24.98;14.80;;;-0.20;99.40;;;;;;5018775;28;20029;-84
2021/01/02 06:26:07;;;;;;;20.95;14.35;;;-0.20;99.50;;;;;;5018435;28;20040;-84
2021/01/02 06:28:34;;;;;;;24.40;13.70;;;-0.20;99.60;;;;;;5018762;28;20022;-82
2021/01/02 06:31:01;;;;;;;21.35;13.68;;;-0.20;99.60;;;;;;5019240;28;20049;-84
2021/01/02 06:33:28;;;;;;;23.60;14.07;;;-0.30;99.50;;;;;;5018993;28;20025;-84
2021/01/02 06:35:54;;;;;;;22.45;14.35;;;-0.20;99.60;;;;;;5036180;28;20507;-85
2021/01/02 06:38:21;;;;;;;26.00;15.55;;;-0.20;99.50;;;;;;5018793;28;20025;-85
2021/01/02 06:40:48;;;;;;;26.10;15.40;;;-0.20;99.60;;;;;;5018656;28;20040;-84
2021/01/02 06:43:25;;;;;;;26.13;14.57;;;-0.20;99.60;;;;;;5018378;28;20559;-83
2021/01/02 06:45:58;;;;;;;24.17;15.43;;;-0.20;99.70;;;;;;5018615;28;20076;-83
2021/01/02 06:48:24;;;;;;;24.45;14.65;;;-0.10;99.90;;;;;;5018730;28;20029;-83
2021/01/02 06:50:55;;;;;;;24.08;14.85;;;0.00;99.80;;;;;;5019482;28;20030;-83
2021/01/02 06:53:35;;;;;;;22.65;14.00;;;-0.10;99.90;;;;;;5022214;28;20026;-83
2021/01/02 06:56:09;;;;;;;107.97;46.33;;;-0.10;99.80;;;;;;5021741;28;20065;-83
2021/01/02 06:58:43;;;;;;;30.73;21.40;;;0.00;99.70;;;;;;5022009;28;20026;-83
2021/01/02 07:01:16;;;;;;;23.08;14.13;;;0.00;99.40;;;;;;5022009;28;20037;-83
2021/01/02 07:03:42;;;;;;;21.58;15.13;;;0.00;99.60;;;;;;5022381;28;20443;-83
2021/01/02 07:06:17;;;;;;;20.85;13.07;;;0.00;99.60;;;;;;5021763;28;20029;-84
2021/01/02 07:08:44;;;;;;;23.90;14.55;;;0.00;99.70;;;;;;5022151;28;20021;-83
2021/01/02 07:11:30;;;;;;;29.13;17.38;;;0.00;99.80;;;;;;5022287;28;20485;-85
2021/01/02 07:14:17;;;;;;;24.52;15.65;;;0.00;99.80;;;;;;5022257;28;20052;-84
2021/01/02 07:17:00;;;;;;;25.65;15.88;;;0.10;99.70;;;;;;5021922;28;20493;-84
2021/01/02 07:19:32;;;;;;;26.95;15.20;;;0.20;99.80;;;;;;5021784;28;20120;-83
2021/01/02 07:22:25;;;;;;;21.33;13.65;;;0.20;99.70;;;;;;5021889;28;20079;-84
2021/01/02 07:25:01;;;;;;;21.80;13.90;;;0.10;99.70;;;;;;5039809;28;20492;-83
2021/01/02 07:27:33;;;;;;;28.60;16.90;;;0.10;99.70;;;;;;5021703;28;20021;-84
2021/01/02 07:30:04;;;;;;;31.20;17.70;;;0.10;99.70;;;;;;5021739;28;20025;-82
2021/01/02 07:32:41;;;;;;;29.52;18.83;;;0.20;99.90;;;;;;5022111;28;20057;-83
2021/01/02 07:35:14;;;;;;;30.52;18.45;;;0.20;99.80;;;;;;5022019;28;20071;-82
2021/01/02 07:37:42;;;;;;;29.08;19.67;;;0.20;99.70;;;;;;5021884;28;20093;-83
2021/01/02 07:40:18;;;;;;;32.50;21.30;;;0.20;99.70;;;;;;5022351;28;20056;-83
2021/01/02 07:42:54;;;;;;;31.95;20.08;;;0.20;99.70;;;;;;5021787;28;20461;-84
2021/01/02 07:45:26;;;;;;;36.33;22.80;;;0.30;99.70;;;;;;5021170;28;20060;-83
2021/01/02 07:47:57;;;;;;;38.80;19.63;;;0.60;99.70;;;;;;5021325;28;20052;-83
2021/01/02 07:50:25;;;;;;;30.90;18.63;;;0.70;99.70;;;;;;5021156;28;20036;-82
2021/01/02 07:52:56;;;;;;;33.78;20.25;;;0.30;99.50;;;;;;5020774;28;20056;-83
2021/01/02 07:55:27;;;;;;;38.05;21.85;;;0.30;99.60;;;;;;5039194;28;20425;-86
2021/01/02 07:57:54;;;;;;;34.78;21.55;;;0.30;99.50;;;;;;5021258;28;20105;-84
2021/01/02 08:00:20;;;;;;;34.33;20.98;;;0.30;99.60;;;;;;5020098;28;20040;-84
2021/01/02 08:02:46;;;;;;;36.30;21.80;;;1.90;99.90;;;;;;5018246;28;20034;-84
2021/01/02 08:05:14;;;;;;;24.90;15.90;;;2.40;99.90;;;;;;5020785;28;20397;-83
2021/01/02 08:07:42;;;;;;;32.38;20.00;;;2.10;95.90;;;;;;5020872;28;20056;-83
2021/01/02 08:10:12;;;;;;;42.67;22.42;;;1.70;95.40;;;;;;5020552;28;20037;-83
2021/01/02 08:12:45;;;;;;;31.52;19.02;;;1.40;95.90;;;;;;5020575;28;20029;-86
2021/01/02 08:15:14;;;;;;;23.33;14.82;;;1.20;96.20;;;;;;5020832;28;20030;-84
2021/01/02 08:17:40;;;;;;;22.20;13.75;;;1.00;96.40;;;;;;5027716;28;20020;-84
2021/01/02 08:20:08;;;;;;;22.38;13.35;;;1.20;97.30;;;;;;5028508;28;20029;-79
2021/01/02 08:22:36;;;;;;;19.02;12.20;;;0.80;97.90;;;;;;5018546;28;20401;-80
2021/01/02 08:25:05;;;;;;;19.92;13.52;;;0.80;98.40;;;;;;5018810;28;20075;-82
2021/01/02 08:27:32;;;;;;;22.05;12.63;;;0.90;99.10;;;;;;5018303;28;20049;-80
2021/01/02 08:30:07;;;;;;;18.88;13.23;;;0.90;98.00;;;;;;5018730;28;20029;-81
2021/01/02 08:32:41;;;;;;;27.67;14.68;;;1.00;97.90;;;;;;5018189;28;20052;-84
2021/01/02 08:35:20;;;;;;;28.27;18.47;;;0.90;97.60;;;;;;5022904;28;20025;-84
2021/01/02 08:37:48;;;;;;;33.95;20.00;;;0.90;97.40;;;;;;5021469;28;20724;-83
2021/01/02 08:40:16;;;;;;;31.95;20.40;;;1.10;97.60;;;;;;5021664;28;20069;-83
2021/01/02 08:42:47;;;;;;;29.05;18.42;;;0.80;97.70;;;;;;5020465;28;20048;-85
2021/01/02 08:45:26;;;;;;;31.33;17.80;;;1.10;98.00;;;;;;5021753;28;20540;-85
2021/01/02 08:48:04;;;;;;;30.52;17.88;;;0.80;97.80;;;;;;5020335;28;20067;-83
2021/01/02 08:50:30;;;;;;;28.48;19.05;;;0.80;97.90;;;;;;5020103;28;20489;-85
2021/01/02 08:52:56;;;;;;;31.10;20.10;;;0.80;97.90;;;;;;5020585;28;20041;-84
2021/01/02 08:55:22;;;;;;;35.00;19.23;;;0.80;97.90;;;;;;5020085;28;20053;-84
2021/01/02 08:57:49;;;;;;;28.23;17.98;;;0.80;98.10;;;;;;5019679;28;20029;-81
2021/01/02 09:00:18;;;;;;;29.73;21.40;;;0.70;98.30;;;;;;5018936;28;20053;-81
2021/01/02 09:02:51;;;;;;;33.03;21.30;;;0.80;98.30;;;;;;5019457;28;20037;-85
2021/01/02 09:05:25;;;;;;;28.65;17.58;;;0.80;98.50;;;;;;5019612;28;20029;-82
2021/01/02 09:07:59;;;;;;;27.85;17.02;;;0.90;98.50;;;;;;5019538;28;20034;-83
2021/01/02 09:10:44;;;;;;;27.45;15.77;;;0.90;98.30;;;;;;5019269;28;20092;-83
2021/01/02 09:13:22;;;;;;;26.00;16.27;;;1.00;98.00;;;;;;5019257;28;20116;-84
2021/01/02 09:15:54;;;;;;;33.03;19.25;;;1.00;97.90;;;;;;5019442;28;20041;-83
2021/01/02 09:18:28;;;;;;;27.83;18.30;;;1.00;98.00;;;;;;5019977;28;20041;-84
2021/01/02 09:21:09;;;;;;;23.10;16.45;;;1.00;98.10;;;;;;5019209;28;20029;-83
2021/01/02 09:23:37;;;;;;;26.13;15.65;;;1.10;97.90;;;;;;5019264;28;20505;-83
2021/01/02 09:26:04;;;;;;;22.50;15.65;;;1.20;97.90;;;;;;5019799;28;20029;-82
2021/01/02 09:28:41;;;;;;;28.80;19.45;;;1.30;97.80;;;;;;5019688;28;20637;-85
2021/01/02 09:31:07;;;;;;;28.95;17.17;;;1.20;97.90;;;;;;5019404;28;20049;-83
2021/01/02 09:33:33;;;;;;;23.63;15.63;;;1.30;97.90;;;;;;5019648;28;20030;-82
2021/01/02 09:35:59;;;;;;;32.53;20.08;;;1.30;97.60;;;;;;5019689;28;20065;-84
2021/01/02 09:38:24;;;;;;;38.88;25.60;;;1.30;97.80;;;;;;5018652;28;20052;-79
2021/01/02 09:40:50;;;;;;;39.22;23.75;;;1.30;97.70;;;;;;5019019;28;20032;-83
2021/01/02 09:43:17;;;;;;;57.03;32.72;;;1.30;97.70;;;;;;5018379;28;20033;-83
2021/01/02 09:45:43;;;;;;;76.20;44.88;;;1.50;97.80;;;;;;5017718;28;20021;-84
2021/01/02 09:48:10;;;;;;;71.43;40.47;;;1.60;97.50;;;;;;5017781;28;20033;-83
2021/01/02 09:50:37;;;;;;;26.15;17.52;;;1.40;97.60;;;;;;5016955;28;20491;-78
2021/01/02 09:53:03;;;;;;;49.33;29.58;;;1.50;97.80;;;;;;5035199;28;20123;-79
2021/01/02 09:55:29;;;;;;;30.95;21.67;;;1.70;97.80;;;;;;5018216;28;20107;-79
2021/01/02 09:57:55;;;;;;;62.25;37.38;;;1.70;97.60;;;;;;5034011;28;20056;-78
2021/01/02 10:00:21;;;;;;;32.72;21.88;;;1.70;97.40;;;;;;5034825;28;20105;-85
2021/01/02 10:02:47;;;;;;;40.38;24.77;;;1.80;97.60;;;;;;5017510;28;20037;-79
2021/01/02 10:05:16;;;;;;;50.47;31.08;;;1.90;97.30;;;;;;5016916;28;20108;-79
2021/01/02 10:07:42;;;;;;;30.13;21.95;;;2.00;96.90;;;;;;5015627;28;20083;-80
2021/01/02 10:10:08;;;;;;;31.58;19.33;;;2.20;96.60;;;;;;5033172;28;20021;-78
2021/01/02 10:12:34;;;;;;;33.15;18.85;;;2.20;96.60;;;;;;5015798;28;20057;-78
2021/01/02 10:15:00;;;;;;;28.33;21.67;;;2.30;96.60;;;;;;5016362;28;20036;-80
2021/01/02 10:17:28;;;;;;;24.45;18.10;;;2.40;96.60;;;;;;5015610;28;20029;-79
2021/01/02 10:19:55;;;;;;;18.15;13.68;;;2.40;96.70;;;;;;5015423;28;20030;-79
2021/01/02 10:22:20;;;;;;;19.60;14.23;;;2.60;96.30;;;;;;5015561;28;20033;-79
2021/01/02 10:24:47;;;;;;;19.55;13.27;;;2.50;96.50;;;;;;5015491;28;20030;-82
2021/01/02 10:27:13;;;;;;;21.52;15.75;;;2.60;96.10;;;;;;5015468;28;20034;-79
2021/01/02 10:29:43;;;;;;;68.82;36.80;;;2.70;96.00;;;;;;5017828;28;20033;-84
2021/01/02 10:32:08;;;;;;;25.80;17.38;;;2.70;95.90;;;;;;5016695;28;20057;-78
2021/01/02 10:34:34;;;;;;;65.80;50.33;;;2.70;95.80;;;;;;5015887;28;20018;-83
2021/01/02 10:36:59;;;;;;;21.48;15.18;;;2.70;95.80;;;;;;5015502;28;20032;-78
2021/01/02 10:39:25;;;;;;;21.92;13.15;;;2.70;95.80;;;;;;5033003;28;20043;-78
2021/01/02 10:41:51;;;;;;;20.13;13.23;;;2.70;95.90;;;;;;5015312;28;20509;-79
2021/01/02 10:44:19;;;;;;;26.00;14.77;;;2.70;96.20;;;;;;5014861;28;20024;-78
2021/01/02 10:46:49;;;;;;;21.55;14.85;;;2.70;96.50;;;;;;5014942;28;20057;-79
2021/01/02 10:49:16;;;;;;;22.70;15.90;;;2.70;96.40;;;;;;5015531;28;20030;-79
2021/01/02 10:51:42;;;;;;;19.10;14.90;;;2.80;98.10;;;;;;5034307;28;20056;-80
2021/01/02 10:54:12;;;;;;;23.58;13.93;;;2.90;96.90;;;;;;5017348;28;20033;-84
2021/01/02 10:56:47;;;;;;;23.42;14.93;;;2.90;95.80;;;;;;5017887;28;20021;-80
2021/01/02 10:59:15;;;;;;;18.63;12.90;;;2.90;96.10;;;;;;5018289;28;20026;-82
2021/01/02 11:01:46;;;;;;;21.30;15.15;;;2.90;96.00;;;;;;5018423;28;20029;-83
2021/01/02 11:04:12;;;;;;;21.95;13.10;;;2.90;96.20;;;;;;5018056;28;20117;-84
2021/01/02 11:06:38;;;;;;;21.23;12.55;;;2.90;96.20;;;;;;5017372;28;20388;-82
2021/01/02 11:09:05;;;;;;;19.75;12.70;;;3.00;96.40;;;;;;5018268;28;20029;-83
2021/01/02 11:11:31;;;;;;;23.90;14.15;;;3.10;96.10;;;;;;5018418;28;20677;-83
2021/01/02 11:13:56;;;;;;;22.83;14.00;;;3.20;96.00;;;;;;5018716;28;20025;-84
2021/01/02 11:16:33;;;;;;;23.17;15.38;;;3.20;95.90;;;;;;5035310;28;20034;-83
2021/01/02 11:18:59;;;;;;;21.35;14.90;;;3.30;96.10;;;;;;5018293;28;20041;-82
2021/01/02 11:21:25;;;;;;;23.38;15.93;;;3.30;96.00;;;;;;5035910;28;20034;-82
2021/01/02 11:23:51;;;;;;;17.65;13.10;;;3.40;96.00;;;;;;5018441;28;20090;-81
2021/01/02 11:26:17;;;;;;;19.25;11.82;;;3.40;95.90;;;;;;5018351;28;20437;-81
2021/01/02 11:28:43;;;;;;;25.65;12.80;;;3.50;95.50;;;;;;5018146;28;20112;-83
2021/01/02 11:31:09;;;;;;;21.95;14.43;;;3.50;95.50;;;;;;5018337;28;20073;-83
2021/01/02 11:33:35;;;;;;;22.30;14.45;;;3.60;95.60;;;;;;5017739;28;20022;-80
2021/01/02 11:36:01;;;;;;;19.75;12.70;;;3.50;95.50;;;;;;5018539;28;20455;-83
2021/01/02 11:38:26;;;;;;;23.45;15.93;;;3.60;95.40;;;;;;5037599;28;20022;-82
2021/01/02 11:40:52;;;;;;;22.27;15.43;;;3.50;95.30;;;;;;5022357;28;20507;-82
2021/01/02 11:43:19;;;;;;;22.33;15.38;;;3.60;95.50;;;;;;5022271;28;20034;-83
2021/01/02 11:45:48;;;;;;;22.25;14.30;;;3.50;95.40;;;;;;5039524;28;20029;-82
2021/01/02 11:48:15;;;;;;;19.50;15.15;;;3.50;95.50;;;;;;5039901;28;20032;-80
2021/01/02 11:50:41;;;;;;;19.73;13.10;;;3.50;95.70;;;;;;5021478;28;20052;-79
2021/01/02 11:53:08;;;;;;;21.38;14.02;;;3.70;96.00;;;;;;5039164;28;20033;-84
2021/01/02 11:55:34;;;;;;;25.00;16.17;;;3.70;96.00;;;;;;5022010;28;20380;-83
2021/01/02 11:58:00;;;;;;;19.17;14.05;;;3.60;95.70;;;;;;5039025;28;20030;-83
2021/01/02 12:00:27;;;;;;;23.88;14.13;;;3.80;95.90;;;;;;5021393;28;20084;-84
2021/01/02 12:02:53;;;;;;;21.30;13.07;;;3.70;95.90;;;;;;5021921;28;20041;-84
2021/01/02 12:05:19;;;;;;;21.48;15.60;;;3.70;95.80;;;;;;5021421;28;20026;-83
2021/01/02 12:07:45;;;;;;;23.73;16.73;;;3.70;95.90;;;;;;5037542;28;20021;-86
2021/01/02 12:10:11;;;;;;;21.88;14.57;;;3.80;96.00;;;;;;5036910;28;20088;-80
2021/01/02 12:12:37;;;;;;;22.15;13.63;;;3.70;96.20;;;;;;5018708;28;20034;-79
2021/01/02 12:15:04;;;;;;;46.97;30.30;;;3.80;96.30;;;;;;5018494;28;20029;-79
2021/01/02 12:17:30;;;;;;;30.10;22.95;;;3.70;96.30;;;;;;5018663;28;20026;-84
2021/01/02 12:19:55;;;;;;;30.42;21.42;;;3.70;96.20;;;;;;5036358;28;20028;-79
2021/01/02 12:22:21;;;;;;;22.73;17.80;;;4.00;96.80;;;;;;5017896;28;20530;-79
2021/01/02 12:24:47;;;;;;;27.55;22.77;;;3.90;96.30;;;;;;5016660;28;20588;-79
2021/01/02 12:27:13;;;;;;;19.77;12.48;;;3.80;96.20;;;;;;5016933;28;20075;-79
2021/01/02 12:29:39;;;;;;;20.27;12.63;;;3.70;96.30;;;;;;5016906;28;20060;-79
2021/01/02 12:32:09;;;;;;;20.38;13.05;;;3.60;96.50;;;;;;5016680;28;20555;-79
2021/01/02 12:34:37;;;;;;;28.60;15.77;;;3.70;96.80;;;;;;5016927;28;20124;-78
2021/01/02 12:37:09;;;;;;;22.52;14.20;;;3.60;96.70;;;;;;5016733;28;20506;-79
2021/01/02 12:39:36;;;;;;;34.60;17.23;;;3.60;96.70;;;;;;5014005;28;20470;-79
2021/01/02 12:42:03;;;;;;;23.88;13.82;;;3.50;96.80;;;;;;5016479;28;20041;-79
2021/01/02 12:44:29;;;;;;;30.17;17.20;;;3.50;97.00;;;;;;5016798;28;20476;-80
2021/01/02 12:47:16;;;;;;;26.40;17.10;;;3.50;97.00;;;;;;5016586;28;20492;-79
2021/01/02 12:49:43;;;;;;;22.95;15.25;;;3.40;97.10;;;;;;5016219;28;20040;-80